Cement Creek, Colorado
Current Conditions -  °F | °C
As of 10:53 PM on Thursday 27 Nov 2014 (Local Time) from KASE Reporting Station
Clear Clear  
Wind Chill: 24°   Ceiling: Unl
Heat Index: 30°   Visibility: 10mi
Dew Point: 20°   Wind: 6mph
Humidity: 66%   Direction: 210°SSW
Pressure: 30.33"   Gusts: NA
Location:  38.8937°N, 106.919°W
Report Text: KASE 280553Z 21005KT 10SM CLR M01/M07 A3033 RMK AO2 SLP239 T10111067 10028 21033 58008
Loading
Personal Weather Stations






























Interactive Weather Map New forecast layout! Learn more

10-Day Weather Forecast

Advertisements
Track Severe Weather on mobile